createdAt,value
2022-11-23T19:08:49.158Z,370.6
2022-11-23T19:09:51.326Z,386.5
2022-11-23T19:10:54.910Z,389.0
2022-11-23T19:11:57.513Z,388.2
2022-11-23T19:13:05.015Z,386.6
2022-11-23T19:14:03.337Z,386.4
2022-11-23T19:15:07.399Z,384.3
2022-11-23T19:16:14.229Z,384.4
2022-11-23T19:17:16.995Z,384.6
2022-11-23T19:18:19.418Z,385.2
2022-11-23T19:19:28.092Z,386.1
2022-11-23T19:20:34.615Z,385.0
2022-11-23T19:21:37.420Z,386.0
2022-11-23T19:22:39.862Z,388.3
2022-11-23T19:23:42.595Z,387.8
2022-11-23T19:24:45.622Z,383.6
2022-11-23T19:25:48.859Z,384.2
2022-11-23T19:26:51.666Z,387.3
2022-11-23T19:27:54.181Z,390.4
2022-11-23T19:28:56.782Z,395.5
2022-11-23T19:29:59.975Z,398.7
2022-11-23T19:31:02.635Z,399.3
2022-11-23T19:32:05.601Z,401.0
2022-11-23T19:33:08.097Z,398.0
2022-11-23T19:34:11.027Z,396.3
2022-11-23T19:35:13.835Z,395.8
2022-11-23T19:36:17.084Z,393.7
2022-11-23T19:37:19.783Z,394.5
2022-11-23T19:38:23.171Z,396.5
2022-11-23T19:39:25.920Z,394.2
2022-11-23T19:40:28.812Z,394.4
2022-11-23T19:41:31.492Z,390.7
2022-11-23T19:42:36.514Z,392.4
2022-11-23T19:43:39.173Z,393.1
2022-11-23T19:44:42.340Z,392.5
2022-11-23T19:45:45.190Z,393.9
2022-11-23T19:46:48.028Z,390.2
2022-11-23T19:47:50.613Z,391.1
2022-11-23T19:48:53.723Z,391.0
2022-11-23T19:49:56.404Z,394.3
2022-11-23T19:51:00.260Z,395.0
2022-11-23T19:52:03.375Z,394.7
2022-11-23T19:53:13.138Z,396.5
2022-11-23T19:54:14.565Z,400.1
2022-11-23T19:55:17.264Z,405.8
2022-11-23T19:56:19.972Z,409.7
2022-11-23T19:57:23.385Z,407.9
2022-11-23T19:58:26.171Z,407.9
2022-11-23T19:59:29.756Z,407.6
2022-11-23T20:00:31.968Z,406.8
2022-11-23T20:01:35.090Z,405.3
2022-11-23T20:02:37.659Z,404.1
2022-11-23T20:03:40.610Z,404.6
2022-11-23T20:04:43.321Z,405.5
2022-11-23T20:05:47.388Z,408.8
2022-11-23T20:06:51.486Z,409.3
2022-11-23T20:07:54.926Z,410.0
2022-11-23T20:08:57.322Z,415.4
2022-11-23T20:10:01.018Z,443.6
2022-11-23T20:11:03.495Z,411.7
2022-11-23T20:12:06.694Z,410.8
2022-11-23T20:13:09.358Z,405.2
2022-11-23T20:14:12.358Z,398.6
2022-11-23T20:15:14.992Z,395.9
2022-11-23T20:16:17.970Z,393.1
2022-11-23T20:17:20.774Z,390.5
2022-11-23T20:18:28.398Z,389.8
2022-11-23T20:19:31.955Z,388.5
2022-11-23T20:20:34.611Z,388.0
2022-11-23T20:21:41.796Z,390.8
2022-11-23T20:22:44.839Z,390.4
2022-11-23T20:23:47.630Z,392.1
2022-11-23T20:24:50.481Z,392.2
2022-11-23T20:25:52.939Z,392.7
2022-11-23T20:30:55.492Z,425.0
2022-11-23T20:31:57.743Z,428.7
2022-11-23T20:32:59.707Z,430.2
2022-11-23T20:34:03.272Z,432.7
2022-11-23T20:35:04.037Z,437.8
2022-11-23T20:36:06.143Z,440.0
2022-11-23T20:37:08.486Z,447.7
2022-11-23T20:38:10.656Z,452.7
2022-11-23T20:39:12.907Z,455.0
2022-11-23T20:40:15.069Z,459.4
2022-11-23T20:41:17.236Z,463.0
2022-11-23T20:42:20.884Z,465.8
2022-11-23T20:43:23.450Z,466.5
2022-11-23T20:44:29.528Z,466.3
2022-11-23T20:45:27.893Z,464.9
2022-11-23T20:47:00.384Z,467.4
2022-11-23T20:47:32.528Z,466.7
2022-11-23T20:48:34.628Z,468.2
2022-11-23T20:49:37.121Z,469.8
2022-11-23T20:50:39.377Z,469.5
2022-11-23T20:51:41.746Z,471.5
2022-11-23T20:52:44.272Z,474.6
2022-11-23T20:53:46.385Z,475.4
2022-11-23T20:54:48.742Z,474.1
2022-11-23T20:55:51.409Z,472.2
2022-11-23T20:56:53.886Z,471.9
2022-11-23T20:57:56.210Z,472.6
2022-11-23T20:58:58.614Z,472.0
2022-11-23T21:00:00.857Z,471.8
2022-11-23T21:01:03.350Z,473.2
2022-11-23T21:02:06.240Z,475.8
2022-11-23T21:03:09.039Z,477.7
2022-11-23T21:04:11.219Z,480.4
2022-11-23T21:05:13.684Z,481.1
2022-11-23T21:06:16.103Z,481.8
2022-11-23T21:07:18.627Z,484.2
2022-11-23T21:08:26.934Z,491.4
2022-11-23T21:09:23.638Z,494.7
2022-11-23T21:10:26.108Z,502.5
2022-11-23T21:11:28.562Z,509.6
2022-11-23T21:12:31.026Z,515.7
2022-11-23T21:13:44.921Z,520.4
2022-11-23T21:14:36.550Z,520.4
2022-11-23T21:15:38.750Z,520.2
2022-11-23T21:16:41.277Z,521.8
2022-11-23T21:17:43.615Z,522.6
2022-11-23T21:18:45.756Z,527.5
2022-11-23T21:19:48.097Z,530.1
2022-11-23T21:20:50.269Z,533.8
2022-11-23T21:21:52.390Z,539.3
2022-11-23T21:22:54.580Z,540.5
2022-11-23T21:23:56.683Z,543.1
2022-11-23T21:24:58.864Z,547.4
2022-11-23T21:26:01.353Z,552.5
2022-11-23T21:27:03.486Z,553.8
2022-11-23T21:28:05.668Z,559.6
2022-11-23T21:29:07.987Z,565.8
2022-11-23T21:30:10.066Z,573.0
2022-11-23T21:31:12.345Z,583.9
2022-11-23T21:32:14.953Z,590.9
2022-11-23T21:33:17.108Z,594.4
2022-11-23T21:34:19.591Z,598.0
2022-11-23T21:35:21.795Z,598.0
2022-11-23T21:36:24.160Z,596.8
2022-11-23T21:37:26.416Z,593.2
2022-11-23T21:38:28.984Z,592.3
2022-11-23T21:39:31.370Z,590.6
2022-11-23T21:40:33.679Z,585.4
2022-11-23T21:41:36.036Z,583.7
2022-11-23T21:42:38.431Z,581.3
2022-11-23T21:43:40.741Z,581.1
2022-11-23T21:44:43.333Z,581.0
2022-11-23T21:45:45.813Z,578.5
2022-11-23T21:46:48.190Z,576.6
2022-11-23T21:47:50.517Z,575.7
2022-11-23T21:48:52.909Z,574.4
2022-11-23T21:49:55.217Z,574.5
2022-11-23T21:50:57.796Z,573.2
2022-11-23T21:52:00.172Z,571.8
2022-11-23T21:53:02.534Z,571.0
2022-11-23T21:54:04.916Z,573.8
2022-11-23T21:55:07.299Z,576.1
2022-11-23T21:56:10.242Z,577.8
2022-11-23T21:57:12.386Z,586.0
2022-11-23T21:58:14.692Z,588.6
2022-11-23T21:59:17.051Z,594.1
2022-11-23T22:00:19.399Z,594.1
2022-11-23T22:01:21.864Z,600.3
2022-11-23T22:02:24.391Z,605.0
2022-11-23T22:03:26.496Z,607.9
2022-11-23T22:04:28.630Z,612.9
2022-11-23T22:05:30.825Z,621.3
2022-11-23T22:06:32.966Z,623.4
2022-11-23T22:07:35.097Z,627.7
2022-11-23T22:08:37.444Z,628.4
2022-11-23T22:09:39.649Z,628.5
2022-11-23T22:10:41.808Z,624.9
2022-11-23T22:11:43.997Z,624.2
2022-11-23T22:12:46.119Z,621.2
2022-11-23T22:13:48.268Z,620.3
2022-11-23T22:14:50.548Z,615.2
2022-11-23T22:15:52.873Z,611.8
2022-11-23T22:16:55.053Z,606.2
2022-11-23T22:17:57.326Z,604.4
2022-11-23T22:18:59.581Z,606.0
2022-11-23T22:20:01.834Z,606.1
2022-11-23T22:21:04.292Z,604.3
2022-11-23T22:22:06.500Z,603.9
2022-11-23T22:23:08.810Z,605.2
2022-11-23T22:24:11.098Z,604.2
2022-11-23T22:25:13.437Z,606.3
2022-11-23T22:26:15.706Z,607.8
2022-11-23T22:27:18.379Z,607.4
2022-11-23T22:28:20.627Z,607.7
2022-11-23T22:29:23.094Z,609.8
2022-11-23T22:30:25.366Z,613.9
2022-11-23T22:31:27.673Z,617.7
2022-11-23T22:32:29.973Z,625.1
2022-11-23T22:33:32.469Z,639.9
2022-11-23T22:34:35.096Z,654.0
2022-11-23T22:35:36.913Z,668.7
2022-11-23T22:36:39.341Z,684.4
2022-11-23T22:37:41.894Z,699.1
2022-11-23T22:38:44.251Z,710.3
2022-11-23T22:39:46.764Z,718.3
2022-11-23T22:40:48.974Z,727.8
2022-11-23T22:41:51.242Z,738.1
2022-11-23T22:42:53.596Z,748.2
2022-11-23T22:43:56.127Z,754.3
2022-11-23T22:44:58.634Z,758.5
2022-11-23T22:46:05.364Z,761.5
2022-11-23T22:47:04.990Z,766.3
2022-11-23T22:48:07.509Z,764.9
2022-11-23T22:49:09.664Z,763.4
2022-11-23T22:50:12.082Z,765.7
2022-11-23T22:51:14.534Z,762.9
2022-11-23T22:52:16.841Z,763.9
2022-11-23T22:53:19.175Z,763.1
2022-11-23T22:54:21.470Z,760.0
2022-11-23T22:55:23.780Z,759.8
2022-11-23T22:56:26.098Z,757.3
2022-11-23T22:57:28.819Z,757.4
2022-11-23T22:58:31.176Z,759.6
2022-11-23T22:59:33.643Z,765.0
2022-11-23T23:00:36.217Z,781.4
2022-11-23T23:01:38.573Z,792.0
2022-11-23T23:02:41.081Z,796.1
2022-11-23T23:03:43.920Z,801.2
2022-11-23T23:04:46.081Z,800.6
2022-11-23T23:05:48.436Z,802.4
2022-11-23T23:06:50.791Z,805.1
2022-11-23T23:07:53.182Z,801.6
2022-11-23T23:08:55.423Z,800.6
2022-11-23T23:09:57.886Z,800.2
2022-11-23T23:11:00.253Z,796.8
2022-11-23T23:12:02.603Z,794.7
2022-11-23T23:13:04.965Z,786.2
2022-11-23T23:14:07.430Z,784.3
2022-11-23T23:15:09.693Z,778.2
2022-11-23T23:16:12.286Z,775.5
2022-11-23T23:17:14.607Z,771.0
2022-11-23T23:18:17.134Z,766.3
2022-11-23T23:19:19.653Z,763.8
2022-11-23T23:20:21.904Z,755.9
2022-11-23T23:21:24.576Z,754.5
2022-11-23T23:22:27.048Z,750.5
2022-11-23T23:23:29.408Z,748.1
2022-11-23T23:24:32.032Z,749.8
2022-11-23T23:25:34.120Z,748.7
2022-11-23T23:26:36.495Z,750.0
2022-11-23T23:27:39.170Z,748.3
2022-11-23T23:28:41.526Z,744.2
2022-11-23T23:29:43.990Z,742.0
2022-11-23T23:30:46.348Z,740.7
2022-11-23T23:31:48.725Z,740.9
2022-11-23T23:32:51.015Z,735.1
2022-11-23T23:33:53.747Z,735.2
2022-11-23T23:34:56.173Z,734.1
2022-11-23T23:35:58.414Z,734.1
2022-11-23T23:37:00.847Z,731.7
2022-11-23T23:38:03.219Z,732.5
2022-11-23T23:39:05.562Z,729.3
2022-11-23T23:40:08.124Z,726.5
2022-11-23T23:41:10.478Z,722.4
2022-11-23T23:42:13.013Z,721.6
2022-11-23T23:43:15.432Z,720.6
2022-11-23T23:44:17.780Z,716.8
2022-11-23T23:45:20.134Z,712.4
2022-11-23T23:46:22.876Z,706.7
2022-11-23T23:47:25.182Z,776.8
2022-11-23T23:48:27.491Z,735.9
2022-11-23T23:49:30.218Z,735.9
2022-11-23T23:50:32.630Z,735.9
2022-11-23T23:51:35.049Z,724.5
2022-11-23T23:52:37.694Z,726.6
2022-11-23T23:53:40.181Z,733.5
2022-11-23T23:54:42.645Z,738.8
2022-11-23T23:55:45.293Z,751.2
2022-11-23T23:56:47.559Z,758.7
2022-11-23T23:57:49.867Z,760.2
2022-11-23T23:58:52.487Z,757.2
2022-11-23T23:59:54.848Z,756.9
